createdAt,value
2023-01-07T00:00:48.271Z,14.00
2023-01-07T00:03:16.911Z,13.20
2023-01-07T00:05:44.283Z,11.97
2023-01-07T00:08:11.745Z,11.77
2023-01-07T00:10:38.536Z,12.53
2023-01-07T00:13:05.473Z,13.03
2023-01-07T00:15:32.229Z,11.47
2023-01-07T00:17:59.344Z,10.43
2023-01-07T00:20:26.246Z,11.10
2023-01-07T00:22:53.111Z,10.50
2023-01-07T00:25:20.438Z,10.97
2023-01-07T00:27:47.283Z,10.43
2023-01-07T00:30:15.112Z,13.27
2023-01-07T00:33:02.156Z,13.00
2023-01-07T00:35:29.056Z,12.23
2023-01-07T00:37:55.950Z,12.43
2023-01-07T00:40:22.842Z,13.53
2023-01-07T00:42:55.456Z,10.97
2023-01-07T00:45:22.825Z,12.50
2023-01-07T00:47:49.652Z,15.03
2023-01-07T00:50:16.763Z,12.30
2023-01-07T00:52:43.536Z,17.00
2023-01-07T00:55:11.254Z,10.57
2023-01-07T00:57:38.104Z,11.13
2023-01-07T01:00:05.295Z,9.77
2023-01-07T01:02:32.250Z,9.83
2023-01-07T01:04:59.210Z,9.93
2023-01-07T01:07:26.076Z,11.00
2023-01-07T01:09:52.892Z,12.93
2023-01-07T01:12:19.703Z,11.43
2023-01-07T01:14:47.854Z,10.87
2023-01-07T01:17:15.347Z,10.93
2023-01-07T01:19:42.227Z,11.27
2023-01-07T01:22:09.093Z,11.13
2023-01-07T01:24:35.942Z,10.13
2023-01-07T01:27:02.796Z,10.23
2023-01-07T01:29:29.648Z,9.03
2023-01-07T01:31:56.557Z,8.87
2023-01-07T01:34:23.569Z,8.37
2023-01-07T01:36:50.468Z,8.83
2023-01-07T01:39:17.967Z,7.67
2023-01-07T01:41:44.853Z,8.80
2023-01-07T01:44:30.617Z,8.20
2023-01-07T01:46:58.119Z,8.83
2023-01-07T01:49:30.605Z,10.50
2023-01-07T01:52:00.888Z,11.10
2023-01-07T01:54:28.210Z,10.03
2023-01-07T01:56:57.465Z,11.40
2023-01-07T01:59:26.663Z,12.30
2023-01-07T02:01:55.755Z,12.13
2023-01-07T02:04:24.566Z,10.57
2023-01-07T02:06:55.074Z,8.50
2023-01-07T02:09:24.023Z,9.23
2023-01-07T02:12:00.040Z,12.57
2023-01-07T02:14:45.394Z,11.10
2023-01-07T02:17:18.344Z,9.20
2023-01-07T02:20:04.131Z,8.83
2023-01-07T02:22:34.659Z,8.70
2023-01-07T02:25:13.200Z,8.93
2023-01-07T02:27:55.527Z,8.43
2023-01-07T02:30:22.419Z,7.17
2023-01-07T02:32:50.217Z,8.23
2023-01-07T02:35:17.588Z,9.07
2023-01-07T02:37:50.148Z,9.90
2023-01-07T02:40:17.475Z,10.10
2023-01-07T02:42:49.395Z,9.53
2023-01-07T02:45:33.720Z,9.13
2023-01-07T02:48:02.797Z,8.83
2023-01-07T02:50:29.632Z,8.07
2023-01-07T02:52:56.665Z,7.57
2023-01-07T02:55:46.777Z,7.03
2023-01-07T02:58:20.065Z,7.00
2023-01-07T03:00:53.665Z,7.10
2023-01-07T03:03:22.222Z,8.73
2023-01-07T03:06:04.280Z,9.40
2023-01-07T03:08:34.378Z,9.07
2023-01-07T03:11:03.033Z,6.40
2023-01-07T03:13:45.948Z,5.17
2023-01-07T03:16:17.801Z,4.77
2023-01-07T03:18:48.873Z,3.40
2023-01-07T03:21:17.147Z,3.50
2023-01-07T03:23:46.055Z,3.63
2023-01-07T03:26:18.342Z,3.07
2023-01-07T03:28:45.837Z,3.77
2023-01-07T03:31:14.214Z,5.03
2023-01-07T03:33:49.725Z,4.37
2023-01-07T03:36:19.834Z,3.93
2023-01-07T03:38:47.745Z,5.10
2023-01-07T03:41:34.953Z,7.30
2023-01-07T03:44:02.433Z,8.30
2023-01-07T03:46:29.734Z,5.43
2023-01-07T03:48:57.306Z,6.20
2023-01-07T03:51:24.390Z,6.67
2023-01-07T03:53:52.202Z,6.70
2023-01-07T03:56:19.146Z,6.67
2023-01-07T03:58:46.278Z,4.00
2023-01-07T04:01:13.236Z,5.40
2023-01-07T04:03:40.359Z,5.40
2023-01-07T04:06:07.207Z,3.67
2023-01-07T04:08:34.112Z,3.30
2023-01-07T04:11:01.551Z,3.13
2023-01-07T04:13:28.810Z,3.20
2023-01-07T04:15:55.600Z,3.73
2023-01-07T04:18:23.281Z,4.00
2023-01-07T04:20:50.117Z,5.37
2023-01-07T04:23:17.165Z,5.40
2023-01-07T04:25:49.531Z,4.93
2023-01-07T04:28:20.369Z,4.27
2023-01-07T04:30:47.473Z,4.67
2023-01-07T04:33:14.985Z,5.13
2023-01-07T04:35:42.198Z,5.37
2023-01-07T04:38:09.264Z,4.83
2023-01-07T04:40:36.231Z,3.80
2023-01-07T04:43:04.468Z,4.90
2023-01-07T04:45:31.552Z,6.17
2023-01-07T04:48:00.360Z,5.90
2023-01-07T04:50:28.471Z,6.30
2023-01-07T04:52:56.182Z,5.80
2023-01-07T04:55:23.285Z,6.47
2023-01-07T04:57:50.656Z,9.17
2023-01-07T05:00:18.146Z,10.37
2023-01-07T05:02:48.256Z,10.13
2023-01-07T05:05:16.392Z,10.07
2023-01-07T05:07:44.132Z,9.00
2023-01-07T05:10:12.205Z,7.77
2023-01-07T05:12:39.738Z,8.70
2023-01-07T05:15:09.407Z,8.43
2023-01-07T05:17:39.872Z,9.67
2023-01-07T05:20:08.443Z,9.47
2023-01-07T05:22:37.246Z,7.40
2023-01-07T05:25:04.847Z,7.27
2023-01-07T05:27:32.054Z,7.40
2023-01-07T05:30:00.219Z,9.60
2023-01-07T05:32:27.426Z,7.53
2023-01-07T05:34:54.438Z,7.47
2023-01-07T05:37:22.226Z,7.37
2023-01-07T05:39:49.117Z,7.43
2023-01-07T05:42:18.983Z,8.40
2023-01-07T05:44:46.579Z,8.27
2023-01-07T05:47:13.376Z,7.33
2023-01-07T05:49:40.203Z,6.50
2023-01-07T05:52:07.279Z,6.43
2023-01-07T05:54:34.109Z,6.23
2023-01-07T05:57:00.946Z,6.40
2023-01-07T05:59:27.935Z,6.93
2023-01-07T06:01:54.789Z,7.73
2023-01-07T06:04:21.759Z,6.93
2023-01-07T06:06:48.728Z,7.20
2023-01-07T06:09:15.634Z,6.80
2023-01-07T06:11:42.386Z,7.70
2023-01-07T06:14:09.675Z,6.90
2023-01-07T06:16:36.642Z,7.20
2023-01-07T06:19:03.793Z,10.40
2023-01-07T06:21:30.623Z,8.90
2023-01-07T06:23:57.544Z,9.50
2023-01-07T06:26:24.346Z,8.77
2023-01-07T06:28:54.354Z,9.90
2023-01-07T06:31:25.588Z,10.40
2023-01-07T06:33:52.454Z,6.67
2023-01-07T06:36:19.592Z,8.80
2023-01-07T06:38:46.476Z,7.97
2023-01-07T06:41:13.266Z,5.70
2023-01-07T06:43:40.384Z,7.80
2023-01-07T06:46:07.944Z,7.17
2023-01-07T06:48:34.887Z,6.40
2023-01-07T06:51:01.854Z,7.33
2023-01-07T06:53:28.713Z,6.13
2023-01-07T06:55:55.534Z,9.73
2023-01-07T06:58:22.466Z,6.00
2023-01-07T07:00:49.266Z,6.47
2023-01-07T07:03:16.230Z,7.40
2023-01-07T07:05:43.327Z,7.07
2023-01-07T07:08:10.150Z,8.10
2023-01-07T07:10:37.143Z,8.00
2023-01-07T07:13:03.951Z,7.73
2023-01-07T07:15:30.921Z,7.07
2023-01-07T07:17:57.729Z,7.10
2023-01-07T07:20:24.667Z,7.87
2023-01-07T07:22:51.770Z,8.97
2023-01-07T07:25:18.780Z,8.50
2023-01-07T07:27:46.456Z,8.23
2023-01-07T07:30:15.089Z,9.40
2023-01-07T07:32:42.398Z,7.60
2023-01-07T07:35:09.706Z,13.77
2023-01-07T07:37:37.395Z,16.27
2023-01-07T07:40:09.235Z,12.80
2023-01-07T07:43:11.143Z,11.93
2023-01-07T07:45:24.583Z,11.17
2023-01-07T07:47:51.621Z,11.93
2023-01-07T07:50:18.576Z,11.30
2023-01-07T07:52:46.328Z,11.33
2023-01-07T07:55:20.017Z,12.97
2023-01-07T07:57:48.990Z,12.63
2023-01-07T08:00:16.013Z,12.27
2023-01-07T08:02:42.836Z,13.50
2023-01-07T08:05:11.553Z,12.87
2023-01-07T08:07:39.076Z,12.20
2023-01-07T08:10:06.461Z,11.33
2023-01-07T08:12:36.395Z,12.47
2023-01-07T08:15:03.921Z,15.60
2023-01-07T08:17:30.745Z,15.17
2023-01-07T08:19:57.525Z,16.10
2023-01-07T08:22:24.444Z,13.70
2023-01-07T08:24:51.328Z,15.17
2023-01-07T08:27:18.113Z,16.77
2023-01-07T08:29:45.234Z,24.63
2023-01-07T08:32:12.120Z,23.40
2023-01-07T08:34:39.147Z,19.43
2023-01-07T08:37:05.937Z,19.50
2023-01-07T08:39:32.943Z,16.43
2023-01-07T08:41:59.774Z,13.93
2023-01-07T08:44:26.550Z,15.90
2023-01-07T08:46:54.000Z,15.77
2023-01-07T08:49:21.417Z,15.20
2023-01-07T08:51:48.338Z,13.80
2023-01-07T08:54:15.395Z,13.10
2023-01-07T08:56:42.269Z,13.37
2023-01-07T08:59:09.246Z,15.10
2023-01-07T09:01:36.168Z,14.10
2023-01-07T09:04:03.272Z,16.90
2023-01-07T09:06:30.390Z,17.37
2023-01-07T09:08:57.243Z,24.57
2023-01-07T09:11:24.210Z,28.00
2023-01-07T09:13:51.108Z,16.77
2023-01-07T09:16:18.079Z,17.30
2023-01-07T09:18:45.659Z,13.33
2023-01-07T09:21:12.443Z,12.17
2023-01-07T09:23:40.597Z,12.60
2023-01-07T09:26:07.908Z,12.80
2023-01-07T09:28:34.727Z,12.23
2023-01-07T09:31:02.691Z,11.23
2023-01-07T09:33:29.481Z,10.80
2023-01-07T09:35:56.337Z,11.47
2023-01-07T09:38:23.321Z,11.93
2023-01-07T09:40:51.068Z,12.17
2023-01-07T09:43:21.058Z,11.00
2023-01-07T09:45:49.829Z,11.33
2023-01-07T09:48:22.179Z,12.30
2023-01-07T09:51:04.656Z,11.60
2023-01-07T09:53:34.272Z,11.87
2023-01-07T09:56:12.378Z,12.37
2023-01-07T09:58:41.126Z,12.80
2023-01-07T10:01:08.018Z,14.43
2023-01-07T10:03:37.750Z,13.43
2023-01-07T10:06:38.455Z,14.13
2023-01-07T10:09:12.615Z,12.50
2023-01-07T10:11:39.463Z,13.17
2023-01-07T10:14:06.266Z,13.30
2023-01-07T10:16:33.307Z,12.13
2023-01-07T10:19:09.337Z,11.60
2023-01-07T10:21:42.549Z,11.47
2023-01-07T10:24:14.097Z,12.30
2023-01-07T10:26:46.544Z,12.90
2023-01-07T10:29:13.422Z,12.30
2023-01-07T10:31:40.828Z,12.63
2023-01-07T10:34:13.639Z,14.40
2023-01-07T10:36:44.957Z,15.57
2023-01-07T10:39:34.996Z,13.10
2023-01-07T10:42:16.066Z,15.33
2023-01-07T10:45:00.980Z,14.07
2023-01-07T10:47:28.320Z,14.93
2023-01-07T10:50:13.817Z,15.80
2023-01-07T10:52:59.491Z,15.30
2023-01-07T10:55:29.247Z,12.40
2023-01-07T10:57:56.256Z,13.03
2023-01-07T11:00:24.405Z,12.13
2023-01-07T11:02:53.437Z,16.17
2023-01-07T11:05:21.545Z,18.80
2023-01-07T11:07:50.417Z,13.83
2023-01-07T11:10:19.643Z,13.03
2023-01-07T11:13:05.136Z,10.60
2023-01-07T11:15:44.562Z,12.77
2023-01-07T11:18:19.613Z,10.40
2023-01-07T11:20:54.086Z,10.63
2023-01-07T11:23:33.066Z,9.83
2023-01-07T11:26:11.077Z,10.50
2023-01-07T11:28:41.046Z,9.03
2023-01-07T11:31:07.827Z,9.83
2023-01-07T11:34:01.451Z,10.37
2023-01-07T11:36:38.665Z,9.33
2023-01-07T11:39:18.384Z,9.00
2023-01-07T11:41:56.308Z,7.87
2023-01-07T11:44:23.675Z,7.47
2023-01-07T11:46:50.711Z,8.70
2023-01-07T11:49:28.207Z,7.87
2023-01-07T11:51:55.574Z,7.13
2023-01-07T11:54:26.693Z,8.17
2023-01-07T11:56:55.135Z,7.17
2023-01-07T11:59:30.273Z,7.40
2023-01-07T12:01:59.688Z,7.57
2023-01-07T12:04:34.091Z,8.07
2023-01-07T12:07:23.907Z,7.47
2023-01-07T12:09:50.919Z,6.40
2023-01-07T12:12:31.936Z,6.50
2023-01-07T12:15:00.274Z,6.33
2023-01-07T12:17:29.790Z,6.40
2023-01-07T12:20:02.713Z,7.60
2023-01-07T12:22:32.315Z,6.80
2023-01-07T12:25:02.212Z,5.37
2023-01-07T12:27:47.691Z,6.33
2023-01-07T12:30:18.146Z,7.40
2023-01-07T12:33:00.004Z,8.27
2023-01-07T12:35:30.051Z,7.97
2023-01-07T12:38:00.434Z,8.00
2023-01-07T12:40:30.837Z,7.97
2023-01-07T12:43:01.767Z,5.43
2023-01-07T12:45:33.077Z,6.37
2023-01-07T12:48:02.897Z,6.63
2023-01-07T12:50:41.139Z,6.40
2023-01-07T12:53:15.215Z,6.67
2023-01-07T12:55:44.569Z,6.90
2023-01-07T12:58:11.446Z,6.67
2023-01-07T13:00:49.631Z,6.77
2023-01-07T13:03:34.322Z,6.67
2023-01-07T13:06:07.262Z,7.07
2023-01-07T13:08:34.345Z,7.13
2023-01-07T13:11:09.886Z,6.87
2023-01-07T13:13:39.638Z,7.53
2023-01-07T13:16:09.687Z,8.23
2023-01-07T13:18:36.554Z,8.07
2023-01-07T13:21:07.272Z,7.33
2023-01-07T13:23:53.182Z,7.23
2023-01-07T13:26:20.092Z,7.67
2023-01-07T13:28:49.913Z,7.70
2023-01-07T13:31:25.124Z,7.33
2023-01-07T13:33:55.031Z,8.47
2023-01-07T13:36:21.895Z,7.20
2023-01-07T13:39:07.599Z,8.73
2023-01-07T13:41:34.458Z,7.70
2023-01-07T13:44:19.993Z,7.33
2023-01-07T13:46:47.268Z,13.97
2023-01-07T13:49:23.002Z,16.33
2023-01-07T13:51:50.024Z,16.90
2023-01-07T13:54:36.829Z,17.43
2023-01-07T13:57:23.728Z,22.13
2023-01-07T13:59:52.913Z,53.57
2023-01-07T14:02:21.610Z,16.80
2023-01-07T14:04:50.009Z,8.87
2023-01-07T14:07:17.533Z,7.03
2023-01-07T14:09:45.398Z,6.93
2023-01-07T14:12:31.139Z,7.73
2023-01-07T14:15:04.100Z,7.37
2023-01-07T14:17:51.055Z,7.53
2023-01-07T14:20:40.327Z,9.10
2023-01-07T14:23:26.253Z,8.60
2023-01-07T14:25:59.379Z,8.33
2023-01-07T14:28:26.232Z,8.87
2023-01-07T14:30:53.629Z,7.80
2023-01-07T14:33:20.623Z,8.07
2023-01-07T14:36:07.787Z,6.70
2023-01-07T14:38:34.632Z,7.70
2023-01-07T14:41:04.123Z,7.80
2023-01-07T14:43:46.141Z,8.50
2023-01-07T14:46:25.099Z,8.43
2023-01-07T14:48:58.251Z,9.00
2023-01-07T14:51:32.554Z,9.17
2023-01-07T14:54:05.639Z,8.97
2023-01-07T14:56:53.778Z,8.47
2023-01-07T14:59:20.640Z,9.60
2023-01-07T15:02:06.394Z,11.73
2023-01-07T15:05:00.825Z,10.73
2023-01-07T15:07:30.327Z,11.70
2023-01-07T15:10:18.860Z,10.90
2023-01-07T15:13:05.889Z,9.93
2023-01-07T15:15:55.128Z,11.83
2023-01-07T15:18:22.580Z,17.63
2023-01-07T15:21:01.779Z,19.83
2023-01-07T15:23:47.606Z,30.47
2023-01-07T15:26:17.213Z,21.10
2023-01-07T15:28:48.190Z,13.93
2023-01-07T15:31:15.940Z,10.77
2023-01-07T15:33:42.822Z,15.27
2023-01-07T15:36:11.293Z,16.20
2023-01-07T15:38:49.515Z,15.27
2023-01-07T15:41:28.567Z,13.23
2023-01-07T15:43:56.331Z,11.77
2023-01-07T15:46:24.510Z,14.77
2023-01-07T15:49:24.179Z,22.83
2023-01-07T15:51:55.977Z,30.40
2023-01-07T15:54:24.428Z,32.17
2023-01-07T15:56:54.271Z,29.67
2023-01-07T15:59:28.444Z,30.97
2023-01-07T16:01:59.029Z,28.87
2023-01-07T16:04:33.209Z,25.40
2023-01-07T16:07:00.938Z,26.53
2023-01-07T16:09:28.772Z,23.50
2023-01-07T16:11:55.855Z,20.77
2023-01-07T16:14:24.312Z,19.63
2023-01-07T16:17:12.733Z,18.23
2023-01-07T16:19:39.524Z,16.43
2023-01-07T16:22:06.938Z,16.87
2023-01-07T16:24:34.063Z,19.93
2023-01-07T16:27:05.357Z,19.50
2023-01-07T16:29:40.062Z,17.00
2023-01-07T16:32:07.799Z,18.97
2023-01-07T16:34:34.659Z,17.77
2023-01-07T16:37:03.197Z,18.07
2023-01-07T16:39:31.557Z,22.70
2023-01-07T16:42:17.286Z,21.87
2023-01-07T16:44:49.731Z,20.27
2023-01-07T16:47:18.690Z,20.23
2023-01-07T16:49:45.844Z,20.87
2023-01-07T16:52:16.452Z,19.03
2023-01-07T16:54:44.453Z,19.43
2023-01-07T16:57:11.331Z,17.57
2023-01-07T16:59:42.919Z,16.47
2023-01-07T17:02:30.157Z,16.43
2023-01-07T17:05:09.671Z,23.17
2023-01-07T17:07:37.861Z,17.73
2023-01-07T17:10:05.308Z,16.87
2023-01-07T17:12:32.178Z,17.93
2023-01-07T17:14:59.105Z,18.67
2023-01-07T17:17:29.153Z,19.30
2023-01-07T17:20:19.953Z,19.23
2023-01-07T17:22:47.574Z,19.93
2023-01-07T17:25:15.762Z,18.43
2023-01-07T17:27:45.005Z,18.03
2023-01-07T17:30:16.329Z,19.30
2023-01-07T17:32:44.173Z,18.53
2023-01-07T17:35:19.060Z,18.97
2023-01-07T17:37:45.869Z,19.23
2023-01-07T17:40:13.263Z,20.40
2023-01-07T17:42:58.736Z,19.80
2023-01-07T17:45:26.164Z,19.33
2023-01-07T17:47:53.067Z,18.47
2023-01-07T17:50:20.881Z,19.07
2023-01-07T17:52:49.409Z,19.10
2023-01-07T17:55:17.448Z,18.20
2023-01-07T17:57:44.813Z,17.83
2023-01-07T18:00:15.871Z,18.40
2023-01-07T18:02:42.948Z,19.93
2023-01-07T18:05:17.667Z,18.97
2023-01-07T18:07:44.555Z,20.33
2023-01-07T18:10:15.758Z,20.80
2023-01-07T18:12:43.874Z,20.13
2023-01-07T18:15:16.916Z,21.23
2023-01-07T18:17:44.427Z,20.40
2023-01-07T18:20:11.445Z,20.97
2023-01-07T18:22:38.717Z,22.33
2023-01-07T18:25:06.288Z,21.03
2023-01-07T18:27:33.264Z,22.60
2023-01-07T18:30:00.062Z,21.43
2023-01-07T18:32:26.964Z,23.00
2023-01-07T18:34:53.781Z,21.80
2023-01-07T18:37:20.719Z,22.30
2023-01-07T18:39:47.544Z,23.80
2023-01-07T18:42:14.813Z,24.20
2023-01-07T18:44:41.647Z,24.97
2023-01-07T18:47:08.623Z,22.87
2023-01-07T18:49:35.512Z,24.20
2023-01-07T18:52:02.566Z,23.93
2023-01-07T18:54:31.778Z,24.33
2023-01-07T18:56:58.701Z,24.43
2023-01-07T18:59:25.778Z,25.10
2023-01-07T19:01:58.172Z,25.50
2023-01-07T19:04:25.622Z,24.87
2023-01-07T19:06:52.770Z,25.70
2023-01-07T19:09:19.885Z,24.53
2023-01-07T19:11:47.106Z,24.67
2023-01-07T19:14:15.469Z,26.27
2023-01-07T19:16:42.897Z,25.07
2023-01-07T19:19:10.536Z,27.07
2023-01-07T19:21:37.357Z,26.27
2023-01-07T19:24:04.774Z,26.83
2023-01-07T19:26:31.795Z,28.10
2023-01-07T19:28:58.660Z,26.97
2023-01-07T19:31:25.759Z,27.17
2023-01-07T19:33:52.549Z,27.23
2023-01-07T19:36:19.459Z,27.67
2023-01-07T19:38:48.257Z,27.87
2023-01-07T19:41:16.667Z,28.77
2023-01-07T19:43:46.202Z,28.03
2023-01-07T19:46:14.665Z,28.07
2023-01-07T19:48:42.234Z,27.50
2023-01-07T19:51:10.409Z,27.13
2023-01-07T19:53:37.545Z,27.60
2023-01-07T19:56:06.676Z,28.27
2023-01-07T19:58:34.050Z,29.87
2023-01-07T20:01:04.081Z,28.93
2023-01-07T20:03:40.227Z,29.93
2023-01-07T20:06:11.012Z,29.47
2023-01-07T20:08:38.484Z,28.67
2023-01-07T20:11:06.233Z,28.67
2023-01-07T20:13:34.598Z,30.13
2023-01-07T20:16:09.364Z,30.87
2023-01-07T20:18:39.985Z,30.30
2023-01-07T20:21:07.385Z,31.23
2023-01-07T20:23:37.954Z,30.23
2023-01-07T20:26:07.344Z,32.17
2023-01-07T20:28:35.653Z,32.70
2023-01-07T20:31:11.075Z,34.13
2023-01-07T20:33:38.129Z,33.53
2023-01-07T20:36:06.915Z,34.47
2023-01-07T20:38:33.927Z,33.60
2023-01-07T20:41:02.537Z,35.27
2023-01-07T20:43:29.413Z,35.03
2023-01-07T20:45:58.568Z,37.23
2023-01-07T20:48:25.656Z,36.87
2023-01-07T20:50:52.504Z,37.97
2023-01-07T20:53:19.400Z,38.00
2023-01-07T20:55:46.325Z,38.10
2023-01-07T20:58:13.156Z,40.73
2023-01-07T21:00:41.759Z,40.43
2023-01-07T21:03:08.940Z,39.87
2023-01-07T21:05:37.617Z,39.70
2023-01-07T21:08:04.529Z,38.53
2023-01-07T21:10:31.460Z,41.67
2023-01-07T21:12:58.378Z,38.77
2023-01-07T21:15:25.308Z,40.27
2023-01-07T21:17:54.298Z,39.43
2023-01-07T21:20:21.223Z,39.37
2023-01-07T21:22:48.348Z,40.90
2023-01-07T21:25:16.331Z,42.03
2023-01-07T21:27:43.456Z,41.07
2023-01-07T21:30:16.590Z,41.87
2023-01-07T21:32:43.790Z,41.60
2023-01-07T21:35:11.435Z,42.37
2023-01-07T21:37:38.535Z,40.60
2023-01-07T21:40:06.433Z,39.03
2023-01-07T21:42:35.113Z,40.27
2023-01-07T21:45:02.036Z,37.13
2023-01-07T21:47:30.050Z,40.50
2023-01-07T21:49:57.115Z,39.30
2023-01-07T21:52:24.182Z,39.20
2023-01-07T21:54:52.161Z,40.80
2023-01-07T21:57:19.414Z,39.53
2023-01-07T21:59:46.690Z,40.20
2023-01-07T22:02:14.639Z,41.57
2023-01-07T22:04:41.639Z,42.03
2023-01-07T22:07:18.255Z,40.67
2023-01-07T22:09:45.718Z,40.20
2023-01-07T22:12:14.801Z,42.03
2023-01-07T22:14:41.727Z,39.97
2023-01-07T22:17:10.083Z,40.53
2023-01-07T22:19:36.937Z,40.00
2023-01-07T22:22:03.878Z,39.77
2023-01-07T22:24:30.929Z,38.80
2023-01-07T22:26:57.885Z,40.47
2023-01-07T22:29:25.013Z,40.87
2023-01-07T22:31:53.311Z,41.03
2023-01-07T22:34:20.454Z,39.07
2023-01-07T22:36:56.641Z,40.03
2023-01-07T22:39:29.782Z,40.67
2023-01-07T22:41:59.392Z,41.73
2023-01-07T22:44:40.257Z,40.87
2023-01-07T22:47:09.610Z,41.87
2023-01-07T22:49:36.643Z,40.63
2023-01-07T22:52:04.610Z,40.53
2023-01-07T22:54:31.829Z,40.70
2023-01-07T22:56:58.622Z,40.33
2023-01-07T22:59:25.556Z,40.57
2023-01-07T23:01:52.343Z,41.67
2023-01-07T23:04:19.498Z,42.50
2023-01-07T23:06:46.733Z,42.57
2023-01-07T23:09:13.636Z,42.00
2023-01-07T23:11:49.372Z,39.97
2023-01-07T23:14:17.598Z,40.37
2023-01-07T23:16:44.647Z,40.93
2023-01-07T23:19:12.259Z,42.30
2023-01-07T23:21:40.256Z,40.07
2023-01-07T23:24:07.237Z,40.43
2023-01-07T23:26:34.325Z,42.70
2023-01-07T23:29:01.301Z,41.80
2023-01-07T23:31:28.129Z,42.17
2023-01-07T23:33:55.009Z,43.03
2023-01-07T23:36:21.844Z,42.77
2023-01-07T23:38:48.729Z,44.00
2023-01-07T23:41:15.476Z,44.80
2023-01-07T23:43:42.343Z,43.17
2023-01-07T23:46:09.780Z,42.43
2023-01-07T23:48:37.371Z,41.97
2023-01-07T23:51:06.191Z,44.07
2023-01-07T23:53:33.420Z,42.07
2023-01-07T23:56:00.414Z,42.47
2023-01-07T23:58:38.089Z,42.92
